Granada, Nicaragua

2:35 PM CST en Diciembre 22, 2014 (GMT -0600)
Augusto Cesar Sandino | Change Station
CLOSE
Current Station
Aeropuerto
Location: Managua,
Altura: 184 ft
Estaciones meteorológicas cercanas

Alt 184 ft 12.14 °N, 86.17 °W | Updated 35 minutes ago

Partly Cloudy
Parcialmente nublado
90 ° F
Sensación térmica 92 ° F
N
18
Viento Variable Viento desde ESE

Hoy
Alta -- | Baja -- ° F
--% Posibilidad de precipitaciones
Ayer
Alta -- | Baja -- ° F
Precip. -- pul
5:59 AM 5:25 PM
Luna nueva, 1% visible
Presión 29.77 pul
Visibilidad 6.2 Millas
Nubes Baja 2400 ft
Índice de calor 92 ° F
Punto de rocío 66 ° F
Humedad 46%
Precipitaciones 0.00 pul
Espesor de la nieve No disponible.
UV 7 de una escala de 12
Polen No disponible.
Calidad del aire No disponible.
Flu Activity No disponible.
METAR MNMG 222000Z 11016KT 9999 FEW024 32/19 Q1008 A2977 NOSIG

More Conditions Fewer Conditions

Presión 29.77 pul
Visibilidad 6.2 Millas
Nubes Baja 2400 ft
Índice de calor 92 ° F
Punto de rocío 66 ° F
Humedad 46%
Precipitaciones 0.00 pul
Espesor de la nieve No disponible.
UV 7 de una escala de 12
Polen No disponible.
Calidad del aire No disponible.
Flu Activity No disponible.
METAR MNMG 222000Z 11016KT 9999 FEW024 32/19 Q1008 A2977 NOSIG

More Conditions Fewer Conditions

10-Day Weather Forecast

Almanac

Astronomía

Dec. 22, 2014 Salida Puesta
Hora real
Crepúsculo civil
Crepúsculo náutico
Crepúsculo astronómico
Luna
Horas de luz
Horas de luz
Tomorrow will be .
, % of the Moon is Illuminated

Extremos de hoy

Máximos del país Bajas del país

Community

WunderPhotos

Upload Photos

1,779,680 ¡fotos cargadas!

WunderBlogs® & News

Nearby

Calidad del aire

  Calidad del aire Índice AQ Contaminante
Not available.

Grosos de nieve

Estación Profundido Altura

Actividad de terremotos

Ciudad Distance Mag. Tiempo y dato
Magnitud mínima muestra es 2,5.

Temperaturas de aguas costeras

Lugar Temperatura

Estaciones meteorológicas cercanas